Time;durP1;ratioP1;P1;durP2;ratioP2;P2;SDS_P1;SDS_P2;PMS_P1;PMS_P2;Temp;Humidity;BMP_temperature;BMP_pressure;BME280_temperature;BME280_humidity;BME280_pressure;Samples;Min_cycle;Max_cycle;Signal;HPM_P1;HPM_P2
2023/03/23 00:00:13;;;;;;;4.30;3.90;;;;;;;;;;6302351;22;20080;-77
2023/03/23 00:02:39;;;;;;;3.88;3.58;;;;;;;;;;6304466;22;20026;-77
2023/03/23 00:05:07;;;;;;;3.85;3.55;;;;;;;;;;6304057;22;20015;-77
2023/03/23 00:07:33;;;;;;;6.53;3.60;;;;;;;;;;6304168;22;20354;-76
2023/03/23 00:10:02;;;;;;;4.20;3.90;;;;;;;;;;6302168;22;20458;-77
2023/03/23 00:12:33;;;;;;;4.40;3.88;;;;;;;;;;6304525;22;20011;-76
2023/03/23 00:15:00;;;;;;;5.05;4.15;;;;;;;;;;6304231;22;20011;-79
2023/03/23 00:17:27;;;;;;;4.78;3.85;;;;;;;;;;6304827;22;20015;-78
2023/03/23 00:19:53;;;;;;;4.63;4.22;;;;;;;;;;6304607;22;20042;-77
2023/03/23 00:22:20;;;;;;;4.97;4.57;;;;;;;;;;6304348;22;20526;-77
2023/03/23 00:24:47;;;;;;;4.13;3.75;;;;;;;;;;6277908;22;20045;-77
2023/03/23 00:27:14;;;;;;;4.82;4.00;;;;;;;;;;6304382;22;20030;-77
2023/03/23 00:29:42;;;;;;;5.72;4.10;;;;;;;;;;6286801;22;20022;-78
2023/03/23 00:32:12;;;;;;;3.95;3.50;;;;;;;;;;6319046;22;20007;-77
2023/03/23 00:34:40;;;;;;;4.20;3.80;;;;;;;;;;6319316;22;20019;-76
2023/03/23 00:37:06;;;;;;;4.90;4.50;;;;;;;;;;6313834;22;20076;-78
2023/03/23 00:39:32;;;;;;;4.43;4.03;;;;;;;;;;6306739;22;20015;-76
2023/03/23 00:42:00;;;;;;;4.65;4.25;;;;;;;;;;6303885;22;20018;-77
2023/03/23 00:44:28;;;;;;;5.15;4.65;;;;;;;;;;6304618;22;20007;-78
2023/03/23 00:46:56;;;;;;;3.85;3.30;;;;;;;;;;6304714;22;20023;-77
2023/03/23 00:49:25;;;;;;;6.05;4.50;;;;;;;;;;6302709;22;20011;-75
2023/03/23 00:51:52;;;;;;;4.53;4.18;;;;;;;;;;6303899;22;20018;-77
2023/03/23 00:54:18;;;;;;;4.65;4.25;;;;;;;;;;6302060;22;20094;-77
2023/03/23 00:56:44;;;;;;;4.28;3.88;;;;;;;;;;6303842;22;20015;-76
2023/03/23 00:59:10;;;;;;;4.10;3.80;;;;;;;;;;6301563;22;20394;-77
2023/03/23 01:01:36;;;;;;;4.25;3.88;;;;;;;;;;6302146;22;20011;-76
2023/03/23 01:04:03;;;;;;;4.57;4.15;;;;;;;;;;6301216;22;20011;-75
2023/03/23 01:06:30;;;;;;;6.22;4.70;;;;;;;;;;6301358;22;20098;-76
2023/03/23 01:08:57;;;;;;;5.30;4.90;;;;;;;;;;6302334;22;20007;-77
2023/03/23 01:11:24;;;;;;;3.45;3.20;;;;;;;;;;6276660;22;20019;-79
2023/03/23 01:13:50;;;;;;;4.53;4.22;;;;;;;;;;6276815;22;20110;-77
2023/03/23 01:16:19;;;;;;;4.78;4.43;;;;;;;;;;6302496;22;20094;-78
2023/03/23 01:18:45;;;;;;;4.50;4.13;;;;;;;;;;6302360;22;20062;-78
2023/03/23 01:21:11;;;;;;;3.55;3.35;;;;;;;;;;6276051;22;20542;-78
2023/03/23 01:23:38;;;;;;;3.90;3.50;;;;;;;;;;6304071;22;20041;-79
2023/03/23 01:26:07;;;;;;;3.60;3.40;;;;;;;;;;6303554;22;20463;-78
2023/03/23 01:28:34;;;;;;;4.07;3.30;;;;;;;;;;6303623;22;20484;-78
2023/03/23 01:31:01;;;;;;;4.57;4.28;;;;;;;;;;6304193;22;20011;-78
2023/03/23 01:33:28;;;;;;;3.90;3.60;;;;;;;;;;6304406;22;20011;-78
2023/03/23 01:35:54;;;;;;;4.22;3.83;;;;;;;;;;6302828;22;20036;-78
2023/03/23 01:38:21;;;;;;;3.65;3.45;;;;;;;;;;6282099;22;20098;-77
2023/03/23 01:40:47;;;;;;;4.10;3.80;;;;;;;;;;6302905;22;20030;-78
2023/03/23 01:43:14;;;;;;;4.43;2.88;;;;;;;;;;6301741;22;20121;-78
2023/03/23 01:45:42;;;;;;;3.88;3.58;;;;;;;;;;6276993;22;20141;-77
2023/03/23 01:48:28;;;;;;;3.70;3.40;;;;;;;;;;6301730;22;20015;-77
2023/03/23 01:50:55;;;;;;;3.60;3.40;;;;;;;;;;6277065;22;20034;-78
2023/03/23 01:53:22;;;;;;;3.92;3.60;;;;;;;;;;6301377;22;20627;-76
2023/03/23 01:55:50;;;;;;;3.50;3.30;;;;;;;;;;6276381;22;20011;-78
2023/03/23 01:58:17;;;;;;;3.60;3.30;;;;;;;;;;6301904;22;20095;-77
2023/03/23 02:00:43;;;;;;;3.80;3.50;;;;;;;;;;6301875;22;20106;-78
2023/03/23 02:03:11;;;;;;;3.53;3.22;;;;;;;;;;6301669;22;20061;-75
2023/03/23 02:05:38;;;;;;;3.33;3.13;;;;;;;;;;6302498;22;20026;-77
2023/03/23 02:08:20;;;;;;;3.20;3.00;;;;;;;;;;6303983;22;20015;-77
2023/03/23 02:10:46;;;;;;;3.22;3.03;;;;;;;;;;6305385;22;20007;-75
2023/03/23 02:13:13;;;;;;;3.25;3.05;;;;;;;;;;6303459;22;20019;-74
2023/03/23 02:16:05;;;;;;;3.20;3.00;;;;;;;;;;6304161;22;20011;-76
2023/03/23 02:18:34;;;;;;;3.42;3.13;;;;;;;;;;6258327;22;20022;-76
2023/03/23 02:21:01;;;;;;;3.40;3.20;;;;;;;;;;6303728;22;20097;-76
2023/03/23 02:23:38;;;;;;;3.15;2.95;;;;;;;;;;6302992;22;20030;-77
2023/03/23 02:26:06;;;;;;;2.55;2.38;;;;;;;;;;6277331;22;20073;-76
2023/03/23 02:28:51;;;;;;;3.15;2.95;;;;;;;;;;6303388;22;20105;-77
2023/03/23 02:31:38;;;;;;;3.38;3.08;;;;;;;;;;6304413;22;20011;-77
2023/03/23 02:34:25;;;;;;;3.30;3.10;;;;;;;;;;6305007;22;20015;-78
2023/03/23 02:37:04;;;;;;;3.22;2.95;;;;;;;;;;6227581;22;20065;-79
2023/03/23 02:39:32;;;;;;;3.80;3.50;;;;;;;;;;6277868;22;20007;-77
2023/03/23 02:42:01;;;;;;;3.40;3.15;;;;;;;;;;6303490;22;20011;-77
2023/03/23 02:44:29;;;;;;;4.88;3.33;;;;;;;;;;6304912;22;20011;-77
2023/03/23 02:46:56;;;;;;;3.33;3.13;;;;;;;;;;6277611;22;20607;-77
2023/03/23 02:49:23;;;;;;;3.67;3.15;;;;;;;;;;6302811;22;20008;-76
2023/03/23 02:51:49;;;;;;;4.50;3.10;;;;;;;;;;6303246;22;20015;-76
2023/03/23 02:54:15;;;;;;;3.40;3.15;;;;;;;;;;6303303;22;20057;-76
2023/03/23 02:56:42;;;;;;;3.25;2.88;;;;;;;;;;6304680;22;20011;-77
2023/03/23 02:59:16;;;;;;;3.78;3.47;;;;;;;;;;6303105;22;20011;-77
2023/03/23 03:01:42;;;;;;;3.20;2.92;;;;;;;;;;6277503;22;20019;-77
2023/03/23 03:04:12;;;;;;;3.35;3.00;;;;;;;;;;6303192;22;20418;-77
2023/03/23 03:06:58;;;;;;;4.93;3.13;;;;;;;;;;6277799;22;20027;-77
2023/03/23 03:09:24;;;;;;;3.70;3.50;;;;;;;;;;6304716;22;20035;-78
2023/03/23 03:11:50;;;;;;;3.10;2.90;;;;;;;;;;6305236;22;20011;-78
2023/03/23 03:14:21;;;;;;;3.47;3.20;;;;;;;;;;6304875;22;20011;-77
2023/03/23 03:16:50;;;;;;;4.00;3.70;;;;;;;;;;6277127;22;20023;-76
2023/03/23 03:19:25;;;;;;;3.75;3.45;;;;;;;;;;6277216;22;20011;-75
2023/03/23 03:21:52;;;;;;;3.50;3.30;;;;;;;;;;6277985;22;20018;-75
2023/03/23 03:24:25;;;;;;;3.53;3.22;;;;;;;;;;6278430;22;20477;-76
2023/03/23 03:26:52;;;;;;;3.53;3.20;;;;;;;;;;6301944;22;20110;-77
2023/03/23 03:29:25;;;;;;;4.30;3.80;;;;;;;;;;6279214;22;20022;-79
2023/03/23 03:31:55;;;;;;;4.28;3.85;;;;;;;;;;6303653;22;20015;-78
2023/03/23 03:34:24;;;;;;;5.63;3.63;;;;;;;;;;6278153;22;20008;-77
2023/03/23 03:36:51;;;;;;;4.25;3.95;;;;;;;;;;6303381;22;20038;-77
2023/03/23 03:39:19;;;;;;;4.45;4.05;;;;;;;;;;6302773;22;20485;-79
2023/03/23 03:41:46;;;;;;;4.15;3.28;;;;;;;;;;6303646;22;20011;-78
2023/03/23 03:44:12;;;;;;;4.32;3.92;;;;;;;;;;6280446;22;20032;-77
2023/03/23 03:46:39;;;;;;;5.80;4.05;;;;;;;;;;6304012;22;20308;-77
2023/03/23 03:49:06;;;;;;;5.10;4.60;;;;;;;;;;6302959;22;20478;-79
2023/03/23 03:51:35;;;;;;;6.88;4.28;;;;;;;;;;6303018;22;20011;-77
2023/03/23 03:54:02;;;;;;;5.93;4.70;;;;;;;;;;6303350;22;20021;-78
2023/03/23 03:56:31;;;;;;;10.30;4.85;;;;;;;;;;6225135;22;20023;-79
2023/03/23 03:59:12;;;;;;;5.00;4.28;;;;;;;;;;6279622;22;20015;-77
2023/03/23 04:02:19;;;;;;;7.63;3.85;;;;;;;;;;6209124;23;20017;-77
2023/03/23 04:04:47;;;;;;;4.17;3.77;;;;;;;;;;6209666;23;20013;-76
2023/03/23 04:07:13;;;;;;;6.38;4.30;;;;;;;;;;6255848;22;20261;-77
2023/03/23 04:09:40;;;;;;;7.85;4.35;;;;;;;;;;6302913;22;20022;-79
2023/03/23 04:12:07;;;;;;;6.15;5.10;;;;;;;;;;6302348;22;20090;-78
2023/03/23 04:14:57;;;;;;;5.60;4.68;;;;;;;;;;6246689;22;20015;-79
2023/03/23 04:17:29;;;;;;;7.18;6.05;;;;;;;;;;6302557;22;20019;-78
2023/03/23 04:19:59;;;;;;;5.38;4.57;;;;;;;;;;6276851;22;20060;-78
2023/03/23 04:22:29;;;;;;;6.22;5.45;;;;;;;;;;6278497;22;20080;-77
2023/03/23 04:24:58;;;;;;;6.90;5.90;;;;;;;;;;6302294;22;20429;-77
2023/03/23 04:27:27;;;;;;;6.53;4.60;;;;;;;;;;6277293;22;20023;-78
2023/03/23 04:29:56;;;;;;;5.93;4.97;;;;;;;;;;6276863;22;20034;-78
2023/03/23 04:32:44;;;;;;;5.13;4.63;;;;;;;;;;6279349;22;20011;-78
2023/03/23 04:35:14;;;;;;;7.65;5.75;;;;;;;;;;6301901;22;20433;-78
2023/03/23 04:38:00;;;;;;;9.05;5.63;;;;;;;;;;6287034;22;20018;-75
2023/03/23 04:40:26;;;;;;;12.35;5.13;;;;;;;;;;6299721;22;20015;-78
2023/03/23 04:43:05;;;;;;;4.78;4.32;;;;;;;;;;6299957;22;20015;-78
2023/03/23 04:45:55;;;;;;;6.53;5.93;;;;;;;;;;6303255;22;20018;-77
2023/03/23 04:48:23;;;;;;;7.13;5.07;;;;;;;;;;6277206;22;20049;-79
2023/03/23 04:51:05;;;;;;;6.75;5.85;;;;;;;;;;6302453;22;20007;-78
2023/03/23 04:53:31;;;;;;;10.50;4.40;;;;;;;;;;6302154;22;20015;-78
2023/03/23 04:55:58;;;;;;;6.47;5.88;;;;;;;;;;6301986;22;20038;-79
2023/03/23 04:58:27;;;;;;;6.93;5.78;;;;;;;;;;6301614;22;20034;-79
2023/03/23 05:01:18;;;;;;;8.30;6.45;;;;;;;;;;6302344;22;20360;-78
2023/03/23 05:04:02;;;;;;;7.10;6.40;;;;;;;;;;6276697;22;20088;-77
2023/03/23 05:06:29;;;;;;;9.10;5.80;;;;;;;;;;6276604;22;20019;-79
2023/03/23 05:09:01;;;;;;;6.95;6.30;;;;;;;;;;6303544;22;20072;-78
2023/03/23 05:11:27;;;;;;;7.22;6.57;;;;;;;;;;6301849;22;20015;-78
2023/03/23 05:13:54;;;;;;;7.22;6.25;;;;;;;;;;6302813;22;20015;-79
2023/03/23 05:16:20;;;;;;;7.00;5.93;;;;;;;;;;6302440;22;20485;-80
2023/03/23 05:18:47;;;;;;;6.07;5.18;;;;;;;;;;6303734;22;20015;-77
2023/03/23 05:21:16;;;;;;;11.55;6.63;;;;;;;;;;6303922;22;20083;-79
2023/03/23 05:23:54;;;;;;;7.90;6.18;;;;;;;;;;6304651;22;20456;-78
2023/03/23 05:26:21;;;;;;;6.32;5.68;;;;;;;;;;6304961;22;20015;-78
2023/03/23 05:28:52;;;;;;;5.97;4.90;;;;;;;;;;6308657;22;20007;-77
2023/03/23 05:31:22;;;;;;;8.30;6.40;;;;;;;;;;6311478;22;20362;-80
2023/03/23 05:33:49;;;;;;;11.07;6.38;;;;;;;;;;6314489;22;20011;-80
2023/03/23 05:36:44;;;;;;;10.77;6.63;;;;;;;;;;6303841;22;20007;-80
2023/03/23 05:39:16;;;;;;;5.78;4.88;;;;;;;;;;6305097;22;20042;-81
2023/03/23 05:41:58;;;;;;;6.07;5.40;;;;;;;;;;6278143;22;20032;-80
2023/03/23 05:44:27;;;;;;;8.32;5.57;;;;;;;;;;6305907;22;20011;-79
2023/03/23 05:46:56;;;;;;;5.28;4.78;;;;;;;;;;6304156;22;20356;-79
2023/03/23 05:49:24;;;;;;;7.03;6.00;;;;;;;;;;6302848;22;20456;-80
2023/03/23 05:51:51;;;;;;;6.75;6.05;;;;;;;;;;6303567;22;20011;-76
2023/03/23 05:54:17;;;;;;;7.25;6.10;;;;;;;;;;6301471;22;20106;-76
2023/03/23 05:56:46;;;;;;;7.65;6.18;;;;;;;;;;6301452;22;20030;-78
2023/03/23 05:59:33;;;;;;;7.28;6.57;;;;;;;;;;6300819;22;20007;-78
2023/03/23 06:02:01;;;;;;;6.55;5.95;;;;;;;;;;6276205;22;20067;-79
2023/03/23 06:04:27;;;;;;;7.13;6.20;;;;;;;;;;6302818;22;20019;-79
2023/03/23 06:07:05;;;;;;;6.95;5.07;;;;;;;;;;6301828;22;20019;-79
2023/03/23 06:09:32;;;;;;;7.22;6.53;;;;;;;;;;6301203;22;20038;-78
2023/03/23 06:12:21;;;;;;;7.35;6.63;;;;;;;;;;6302624;22;20102;-79
2023/03/23 06:15:08;;;;;;;7.00;6.30;;;;;;;;;;6291314;22;20091;-78
2023/03/23 06:18:03;;;;;;;7.05;6.35;;;;;;;;;;6287972;22;20030;-78
2023/03/23 06:20:50;;;;;;;8.00;6.20;;;;;;;;;;6302173;22;20042;-78
2023/03/23 06:23:37;;;;;;;7.65;5.75;;;;;;;;;;6301670;22;20146;-79
2023/03/23 06:26:05;;;;;;;7.30;6.60;;;;;;;;;;6302176;22;20046;-77
2023/03/23 06:28:32;;;;;;;13.38;6.50;;;;;;;;;;6299757;22;20015;-78
2023/03/23 06:31:02;;;;;;;6.97;6.32;;;;;;;;;;6275032;22;20018;-78
2023/03/23 06:33:28;;;;;;;6.25;5.65;;;;;;;;;;6300670;22;20011;-77
2023/03/23 06:36:07;;;;;;;7.57;6.70;;;;;;;;;;6276849;22;20011;-77
2023/03/23 06:38:55;;;;;;;6.93;6.22;;;;;;;;;;6301405;22;20011;-77
2023/03/23 06:41:30;;;;;;;5.97;5.47;;;;;;;;;;6300146;22;20022;-78
2023/03/23 06:43:55;;;;;;;6.93;6.10;;;;;;;;;;6300954;22;20011;-78
2023/03/23 06:46:27;;;;;;;10.75;6.05;;;;;;;;;;6300729;22;20015;-77
2023/03/23 06:49:25;;;;;;;6.13;5.63;;;;;;;;;;6290237;22;20019;-77
2023/03/23 06:52:06;;;;;;;6.70;5.97;;;;;;;;;;6279125;22;20019;-78
2023/03/23 06:54:33;;;;;;;6.43;5.82;;;;;;;;;;6302754;22;20344;-78
2023/03/23 06:57:01;;;;;;;10.65;6.03;;;;;;;;;;6302614;22;20141;-76
2023/03/23 06:59:27;;;;;;;12.27;6.00;;;;;;;;;;6276586;22;20011;-78
2023/03/23 07:01:53;;;;;;;7.00;4.72;;;;;;;;;;6304021;22;20011;-78
2023/03/23 07:04:19;;;;;;;6.22;5.47;;;;;;;;;;6303969;22;20023;-77
2023/03/23 07:06:56;;;;;;;5.53;5.03;;;;;;;;;;6302973;22;20019;-80
2023/03/23 07:09:22;;;;;;;6.55;5.95;;;;;;;;;;6277760;22;20084;-75
2023/03/23 07:11:51;;;;;;;6.00;5.50;;;;;;;;;;6308800;22;20011;-78
2023/03/23 07:14:29;;;;;;;7.55;5.43;;;;;;;;;;6294613;22;20013;-79
2023/03/23 07:16:55;;;;;;;10.35;6.70;;;;;;;;;;6315008;22;20050;-77
2023/03/23 07:19:22;;;;;;;8.45;6.85;;;;;;;;;;6313656;22;20017;-77
2023/03/23 07:21:49;;;;;;;6.80;6.18;;;;;;;;;;6303127;22;20011;-79
2023/03/23 07:24:16;;;;;;;8.65;6.55;;;;;;;;;;6304556;22;20047;-77
2023/03/23 07:26:58;;;;;;;7.40;6.13;;;;;;;;;;6304734;22;20023;-77
2023/03/23 07:29:26;;;;;;;10.23;6.47;;;;;;;;;;6303528;22;20018;-75
2023/03/23 07:32:02;;;;;;;7.15;6.45;;;;;;;;;;6274486;22;20208;-76
2023/03/23 07:34:28;;;;;;;7.97;6.75;;;;;;;;;;6249898;22;20022;-78
2023/03/23 07:37:03;;;;;;;6.35;5.82;;;;;;;;;;6302086;22;20086;-75
2023/03/23 07:39:33;;;;;;;6.85;6.22;;;;;;;;;;6301145;22;20333;-74
2023/03/23 07:42:00;;;;;;;6.35;5.82;;;;;;;;;;6304740;22;20017;-76
2023/03/23 07:44:40;;;;;;;;;;;;;;;;;;6306110;22;20040;-75
2023/03/23 07:47:08;;;;;;;5.05;4.63;;;;;;;;;;6310121;22;19914;-75
2023/03/23 07:49:35;;;;;;;6.07;5.47;;;;;;;;;;6309549;22;20011;-76
2023/03/23 07:52:25;;;;;;;8.38;5.22;;;;;;;;;;6302520;22;20018;-78
2023/03/23 07:54:51;;;;;;;7.57;5.22;;;;;;;;;;6312610;22;20041;-76
2023/03/23 07:57:35;;;;;;;6.93;6.32;;;;;;;;;;6309051;22;20018;-76
2023/03/23 08:00:09;;;;;;;6.53;5.97;;;;;;;;;;6306572;22;20011;-76
2023/03/23 08:02:42;;;;;;;6.43;5.90;;;;;;;;;;6303333;22;20022;-77
2023/03/23 08:05:27;;;;;;;6.35;5.75;;;;;;;;;;6305257;22;20479;-79
2023/03/23 08:08:25;;;;;;;5.63;5.22;;;;;;;;;;6265019;22;20134;-79
2023/03/23 08:11:10;;;;;;;5.70;5.15;;;;;;;;;;6304913;22;20501;-79
2023/03/23 08:13:40;;;;;;;6.05;5.53;;;;;;;;;;6304438;22;20018;-79
2023/03/23 08:16:29;;;;;;;6.80;6.20;;;;;;;;;;6302373;22;20019;-80
2023/03/23 08:18:56;;;;;;;5.93;4.97;;;;;;;;;;6305251;22;20120;-81
2023/03/23 08:22:01;;;;;;;5.97;5.47;;;;;;;;;;6179871;23;20013;-77
2023/03/23 08:24:53;;;;;;;4.40;4.10;;;;;;;;;;6152224;23;20017;-80
2023/03/23 08:27:29;;;;;;;4.43;4.13;;;;;;;;;;6259082;22;20019;-79
2023/03/23 08:30:26;;;;;;;6.50;5.90;;;;;;;;;;6245744;22;20406;-78
2023/03/23 08:33:24;;;;;;;5.47;4.97;;;;;;;;;;6252235;22;20011;-80
2023/03/23 08:36:08;;;;;;;8.98;6.13;;;;;;;;;;6302702;22;20018;-81
2023/03/23 08:39:00;;;;;;;5.32;4.82;;;;;;;;;;6299942;22;20018;-77
2023/03/23 08:41:56;;;;;;;8.75;5.60;;;;;;;;;;6290172;22;20011;-77
2023/03/23 08:44:55;;;;;;;5.13;4.72;;;;;;;;;;6304496;22;20385;-77
2023/03/23 08:47:51;;;;;;;5.45;5.05;;;;;;;;;;6306675;22;20019;-78
2023/03/23 08:50:36;;;;;;;5.68;5.18;;;;;;;;;;6307696;22;20012;-77
2023/03/23 08:53:31;;;;;;;5.07;4.68;;;;;;;;;;6310855;22;20094;-78
2023/03/23 08:56:16;;;;;;;10.90;5.68;;;;;;;;;;6310003;22;20011;-79
2023/03/23 08:58:54;;;;;;;5.68;5.18;;;;;;;;;;6312832;22;20038;-76
2023/03/23 09:01:33;;;;;;;4.95;4.55;;;;;;;;;;6306501;22;20022;-77
2023/03/23 09:04:20;;;;;;;5.18;4.88;;;;;;;;;;6303323;22;20004;-77
2023/03/23 09:06:58;;;;;;;6.47;6.00;;;;;;;;;;6301460;22;20026;-77
2023/03/23 09:09:24;;;;;;;5.63;5.22;;;;;;;;;;6302358;22;20019;-77
2023/03/23 09:11:52;;;;;;;5.70;5.20;;;;;;;;;;6301999;22;20037;-75
2023/03/23 09:14:18;;;;;;;5.10;4.75;;;;;;;;;;6301851;22;20007;-77
2023/03/23 09:16:45;;;;;;;5.05;4.65;;;;;;;;;;6274086;22;20076;-76
2023/03/23 09:19:21;;;;;;;8.07;5.80;;;;;;;;;;6302589;22;20017;-78
2023/03/23 09:21:47;;;;;;;5.95;5.43;;;;;;;;;;6301092;22;20086;-78
2023/03/23 09:24:14;;;;;;;5.47;5.05;;;;;;;;;;6302820;22;20039;-77
2023/03/23 09:26:40;;;;;;;6.15;5.53;;;;;;;;;;6300648;22;20019;-78
2023/03/23 09:29:06;;;;;;;6.03;5.43;;;;;;;;;;6301089;22;20062;-78
2023/03/23 09:31:32;;;;;;;5.38;4.88;;;;;;;;;;6301554;22;20030;-75
2023/03/23 09:33:58;;;;;;;5.32;4.93;;;;;;;;;;6275750;22;20014;-77
2023/03/23 09:36:25;;;;;;;5.38;4.82;;;;;;;;;;6300595;22;20011;-76
2023/03/23 09:38:52;;;;;;;5.60;5.13;;;;;;;;;;6300318;22;20149;-76
2023/03/23 09:41:44;;;;;;;6.05;5.55;;;;;;;;;;6301929;22;20015;-74
2023/03/23 09:44:15;;;;;;;4.85;4.53;;;;;;;;;;6300004;22;20015;-77
2023/03/23 09:47:01;;;;;;;5.70;5.20;;;;;;;;;;6275195;22;20078;-74
2023/03/23 09:49:29;;;;;;;4.68;4.38;;;;;;;;;;6302468;22;20483;-76
2023/03/23 09:52:21;;;;;;;5.50;5.20;;;;;;;;;;6300265;22;20438;-77
2023/03/23 09:54:50;;;;;;;5.57;5.10;;;;;;;;;;6295862;22;20011;-76
2023/03/23 09:57:20;;;;;;;5.32;4.93;;;;;;;;;;6302209;22;20034;-75
2023/03/23 09:59:47;;;;;;;5.85;5.25;;;;;;;;;;6299795;22;20007;-77
2023/03/23 10:02:19;;;;;;;5.72;5.28;;;;;;;;;;6302343;22;20091;-77
2023/03/23 10:04:45;;;;;;;;;;;;;;;;;;6275970;22;20351;-76
2023/03/23 10:07:13;;;;;;;5.30;4.75;;;;;;;;;;6304568;22;19953;-75
2023/03/23 10:09:40;;;;;;;5.05;4.55;;;;;;;;;;6302323;22;20037;-77
2023/03/23 10:12:11;;;;;;;6.50;5.40;;;;;;;;;;6300686;22;20475;-77
2023/03/23 10:14:58;;;;;;;5.78;5.38;;;;;;;;;;6299815;22;20031;-75
2023/03/23 10:17:28;;;;;;;5.13;4.75;;;;;;;;;;6300470;22;20073;-76
2023/03/23 10:19:54;;;;;;;4.90;4.60;;;;;;;;;;6299952;22;20018;-78
2023/03/23 10:22:28;;;;;;;5.28;4.97;;;;;;;;;;6301602;22;20465;-75
2023/03/23 10:25:01;;;;;;;5.28;4.93;;;;;;;;;;6300132;22;20014;-78
2023/03/23 10:27:50;;;;;;;5.07;4.68;;;;;;;;;;6303283;22;20027;-78
2023/03/23 10:30:18;;;;;;;4.78;4.47;;;;;;;;;;6276730;22;20064;-77
2023/03/23 10:32:52;;;;;;;5.50;5.07;;;;;;;;;;6302041;22;20383;-78
2023/03/23 10:35:25;;;;;;;5.07;4.68;;;;;;;;;;6303778;22;20355;-76
2023/03/23 10:37:54;;;;;;;6.78;4.97;;;;;;;;;;6301191;22;20007;-75
2023/03/23 10:40:21;;;;;;;4.93;4.53;;;;;;;;;;6301416;22;20022;-76
2023/03/23 10:42:47;;;;;;;5.38;4.88;;;;;;;;;;6303245;22;20008;-78
2023/03/23 10:45:18;;;;;;;5.00;4.60;;;;;;;;;;6303273;22;20015;-77
2023/03/23 10:47:51;;;;;;;4.90;4.50;;;;;;;;;;6302073;22;20019;-76
2023/03/23 10:50:21;;;;;;;4.53;4.13;;;;;;;;;;6304067;22;20393;-77
2023/03/23 10:52:47;;;;;;;8.10;3.25;;;;;;;;;;6302938;22;20035;-77
2023/03/23 10:55:15;;;;;;;3.92;3.63;;;;;;;;;;6276339;22;20081;-74
2023/03/23 10:57:59;;;;;;;4.05;3.85;;;;;;;;;;6302829;22;20035;-77
2023/03/23 11:00:26;;;;;;;4.93;4.53;;;;;;;;;;6303752;22;20022;-77
2023/03/23 11:03:00;;;;;;;4.78;4.47;;;;;;;;;;6301402;22;20076;-76
2023/03/23 11:05:36;;;;;;;4.65;4.28;;;;;;;;;;6303649;22;20018;-76
2023/03/23 11:08:02;;;;;;;3.95;3.63;;;;;;;;;;6301563;22;20046;-75
2023/03/23 11:10:38;;;;;;;4.40;4.10;;;;;;;;;;6303874;22;20038;-79
2023/03/23 11:13:09;;;;;;;4.38;4.07;;;;;;;;;;6304189;22;20075;-78
2023/03/23 11:15:37;;;;;;;4.10;3.70;;;;;;;;;;6304141;22;20015;-79
2023/03/23 11:18:04;;;;;;;4.35;4.05;;;;;;;;;;6303883;22;20019;-78
2023/03/23 11:20:35;;;;;;;4.70;4.40;;;;;;;;;;6304394;22;20433;-76
2023/03/23 11:23:02;;;;;;;5.05;3.90;;;;;;;;;;6301465;22;20106;-76
2023/03/23 11:25:28;;;;;;;3.97;3.75;;;;;;;;;;6304582;22;20060;-74
2023/03/23 11:27:55;;;;;;;4.28;3.92;;;;;;;;;;6303056;22;20033;-77
2023/03/23 11:30:25;;;;;;;5.25;4.85;;;;;;;;;;6308286;22;20007;-76
2023/03/23 11:32:52;;;;;;;4.20;3.90;;;;;;;;;;6286537;22;20011;-77
2023/03/23 11:35:23;;;;;;;3.63;3.42;;;;;;;;;;6315794;22;20018;-77
2023/03/23 11:37:49;;;;;;;;;;;;;;;;;;6315464;22;20007;-76
2023/03/23 11:40:16;;;;;;;3.80;3.50;;;;;;;;;;6305679;22;19907;-77
2023/03/23 11:42:42;;;;;;;3.60;3.40;;;;;;;;;;6303348;22;20011;-77
2023/03/23 11:45:25;;;;;;;2.85;2.72;;;;;;;;;;6304827;22;20015;-77
2023/03/23 11:48:06;;;;;;;4.25;3.85;;;;;;;;;;6303458;22;20110;-76
2023/03/23 11:50:33;;;;;;;4.63;3.50;;;;;;;;;;6303655;22;20018;-74
2023/03/23 11:53:02;;;;;;;3.38;3.17;;;;;;;;;;6301734;22;20019;-75
2023/03/23 11:55:29;;;;;;;3.50;3.20;;;;;;;;;;6303136;22;20008;-74
2023/03/23 11:57:55;;;;;;;3.90;3.67;;;;;;;;;;6301237;22;20462;-75
2023/03/23 12:00:22;;;;;;;4.55;3.78;;;;;;;;;;6276201;22;20084;-75
2023/03/23 12:03:08;;;;;;;4.05;3.75;;;;;;;;;;6275654;22;20017;-74
2023/03/23 12:05:59;;;;;;;3.38;3.17;;;;;;;;;;6303081;22;20042;-75
2023/03/23 12:08:37;;;;;;;4.15;3.78;;;;;;;;;;6303423;22;20015;-75
2023/03/23 12:11:09;;;;;;;4.10;3.75;;;;;;;;;;6303804;22;20022;-75
2023/03/23 12:13:55;;;;;;;3.53;3.22;;;;;;;;;;6305184;22;20022;-75
2023/03/23 12:16:27;;;;;;;2.63;2.42;;;;;;;;;;6302982;22;20027;-75
2023/03/23 12:19:11;;;;;;;4.00;3.70;;;;;;;;;;6302900;22;20011;-74
2023/03/23 12:21:37;;;;;;;3.70;3.50;;;;;;;;;;6302938;22;20011;-75
2023/03/23 12:24:11;;;;;;;3.58;3.38;;;;;;;;;;6300735;22;20015;-74
2023/03/23 12:26:39;;;;;;;3.55;3.30;;;;;;;;;;6302475;22;20448;-74
2023/03/23 12:29:12;;;;;;;3.47;3.28;;;;;;;;;;6302735;22;20022;-73
2023/03/23 12:31:44;;;;;;;3.65;2.80;;;;;;;;;;6302483;22;20430;-74
2023/03/23 12:34:17;;;;;;;4.03;3.28;;;;;;;;;;6301746;22;20099;-77
2023/03/23 12:36:43;;;;;;;6.30;3.70;;;;;;;;;;6275292;22;20014;-75
2023/03/23 12:39:27;;;;;;;3.55;3.25;;;;;;;;;;6302901;22;20015;-74
2023/03/23 12:41:56;;;;;;;3.63;3.33;;;;;;;;;;6301456;22;20101;-77
2023/03/23 12:44:28;;;;;;;5.13;2.47;;;;;;;;;;6303272;22;20007;-76
2023/03/23 12:47:03;;;;;;;4.07;3.70;;;;;;;;;;6301567;22;20023;-76
2023/03/23 12:49:32;;;;;;;4.78;3.83;;;;;;;;;;6302324;22;20007;-77
2023/03/23 12:52:11;;;;;;;3.33;2.75;;;;;;;;;;6302437;22;20065;-77
2023/03/23 12:54:51;;;;;;;5.13;3.83;;;;;;;;;;6301513;22;20014;-75
2023/03/23 12:57:19;;;;;;;2.90;2.72;;;;;;;;;;6303067;22;20101;-72
2023/03/23 13:00:15;;;;;;;3.97;3.20;;;;;;;;;;6302030;22;20340;-77
2023/03/23 13:02:41;;;;;;;5.50;3.70;;;;;;;;;;6277098;22;20011;-76
2023/03/23 13:05:14;;;;;;;3.40;3.13;;;;;;;;;;6307576;22;20012;-81
2023/03/23 13:07:48;;;;;;;3.40;3.20;;;;;;;;;;6303143;22;20019;-78
2023/03/23 13:10:26;;;;;;;3.30;3.10;;;;;;;;;;6306584;22;20011;-82
2023/03/23 13:12:52;;;;;;;3.25;3.05;;;;;;;;;;6309332;22;20023;-80
2023/03/23 13:15:22;;;;;;;5.78;3.83;;;;;;;;;;6307574;22;20014;-80
2023/03/23 13:17:55;;;;;;;5.53;3.78;;;;;;;;;;6311380;22;20160;-83
2023/03/23 13:20:37;;;;;;;3.35;3.05;;;;;;;;;;6288377;22;20011;-82
2023/03/23 13:23:11;;;;;;;3.83;3.53;;;;;;;;;;6317553;22;19999;-84
2023/03/23 13:25:38;;;;;;;3.70;3.25;;;;;;;;;;6328325;22;20014;-83
2023/03/23 13:28:04;;;;;;;3.58;3.15;;;;;;;;;;6324403;22;20049;-84
2023/03/23 13:30:30;;;;;;;3.85;3.55;;;;;;;;;;6328434;22;20080;-85
2023/03/23 13:33:04;;;;;;;3.67;2.85;;;;;;;;;;6324765;22;20288;-81
2023/03/23 13:35:33;;;;;;;4.90;3.65;;;;;;;;;;6304802;22;20065;-78
2023/03/23 13:37:59;;;;;;;3.70;3.50;;;;;;;;;;6305381;22;20062;-83
2023/03/23 13:40:27;;;;;;;4.18;3.88;;;;;;;;;;6252377;22;20078;-82
2023/03/23 13:42:56;;;;;;;3.90;3.60;;;;;;;;;;6280631;22;20007;-78
2023/03/23 13:45:24;;;;;;;3.72;3.42;;;;;;;;;;6304514;22;20015;-81
2023/03/23 13:47:50;;;;;;;3.88;3.47;;;;;;;;;;6279791;22;20029;-82
2023/03/23 13:50:17;;;;;;;2.75;2.65;;;;;;;;;;6313766;22;20011;-83
2023/03/23 13:52:43;;;;;;;3.80;3.50;;;;;;;;;;6307353;22;20045;-82
2023/03/23 13:55:16;;;;;;;4.07;3.78;;;;;;;;;;6313746;22;20007;-83
2023/03/23 13:58:09;;;;;;;4.15;3.58;;;;;;;;;;6312331;22;20088;-80
2023/03/23 14:00:37;;;;;;;3.60;3.30;;;;;;;;;;6305255;22;20140;-77
2023/03/23 14:03:09;;;;;;;4.20;3.75;;;;;;;;;;6306014;22;20053;-75
2023/03/23 14:05:37;;;;;;;3.92;3.55;;;;;;;;;;6308981;22;20695;-82
2023/03/23 14:08:10;;;;;;;3.53;3.28;;;;;;;;;;6311838;22;20053;-82
2023/03/23 14:10:50;;;;;;;5.55;3.95;;;;;;;;;;6314111;22;20007;-82
2023/03/23 14:13:20;;;;;;;4.75;4.35;;;;;;;;;;6312365;22;20045;-82
2023/03/23 14:16:02;;;;;;;4.18;3.92;;;;;;;;;;6291270;22;20022;-82
2023/03/23 14:18:34;;;;;;;4.43;4.10;;;;;;;;;;6317867;22;20023;-82
2023/03/23 14:21:00;;;;;;;7.90;5.00;;;;;;;;;;6317124;22;20003;-82
2023/03/23 14:23:26;;;;;;;7.18;4.95;;;;;;;;;;6324491;22;20017;-82
2023/03/23 14:26:05;;;;;;;6.95;3.78;;;;;;;;;;6312958;22;20007;-83
2023/03/23 14:28:33;;;;;;;5.20;4.80;;;;;;;;;;6314864;22;20046;-82
2023/03/23 14:31:00;;;;;;;8.50;4.47;;;;;;;;;;6314328;22;20031;-83
2023/03/23 14:33:27;;;;;;;5.82;5.00;;;;;;;;;;6315455;22;20077;-83
2023/03/23 14:35:53;;;;;;;4.93;4.40;;;;;;;;;;6310695;22;20011;-76
2023/03/23 14:38:21;;;;;;;6.15;4.45;;;;;;;;;;6303934;22;20011;-79
2023/03/23 14:40:47;;;;;;;5.40;4.72;;;;;;;;;;6277774;22;20710;-79
2023/03/23 14:43:15;;;;;;;6.78;4.70;;;;;;;;;;6304894;22;20019;-81
2023/03/23 14:45:41;;;;;;;5.20;4.70;;;;;;;;;;6285573;22;20128;-81
2023/03/23 14:48:08;;;;;;;4.47;4.07;;;;;;;;;;6305637;22;20443;-81
2023/03/23 14:50:37;;;;;;;5.40;4.85;;;;;;;;;;6278215;22;20015;-79
2023/03/23 14:53:16;;;;;;;5.32;4.82;;;;;;;;;;6306276;22;20475;-80
2023/03/23 14:55:42;;;;;;;4.38;3.97;;;;;;;;;;6305136;22;20019;-80
2023/03/23 14:58:09;;;;;;;4.88;4.47;;;;;;;;;;6302168;22;20089;-78
2023/03/23 15:00:55;;;;;;;4.22;3.92;;;;;;;;;;6304187;22;20359;-78
2023/03/23 15:03:21;;;;;;;5.00;4.50;;;;;;;;;;6287658;22;20022;-83
2023/03/23 15:05:49;;;;;;;4.25;3.95;;;;;;;;;;6261645;22;20138;-79
2023/03/23 15:08:18;;;;;;;5.43;5.03;;;;;;;;;;6305558;22;20023;-82
2023/03/23 15:10:51;;;;;;;5.45;4.95;;;;;;;;;;6309476;22;20076;-82
2023/03/23 15:13:17;;;;;;;4.13;3.72;;;;;;;;;;6308959;22;20022;-82